Topsham, Vermont
Current Conditions -  °F | °C
As of 6:18 PM on Wednesday 17 Dec 2014 (Local Time) from KMPV Reporting Station
Haze Haze  
Wind Chill: 33°   Ceiling: 3500
Heat Index: 33°   Visibility: 1.2mi
Dew Point: 33°   Wind: 0mph
Humidity: 100%   Direction: NA
Pressure: 29.77"   Gusts: NA
Location:  44.0639°N, 72.2226°W
Report Text: KMPV 172318Z AUTO 00000KT 1 1/4SM BR FEW019 SCT025 OVC035 01/01 A2977 RMK AO2 T00060006
Loading
Personal Weather Stations






























Interactive Weather Map New forecast layout! Learn more

10-Day Weather Forecast

Advertisements
Track Severe Weather on mobile